Time;durP1;ratioP1;P1;durP2;ratioP2;P2;SDS_P1;SDS_P2;PMS_P1;PMS_P2;Temp;Humidity;BMP_temperature;BMP_pressure;BME280_temperature;BME280_humidity;BME280_pressure;Samples;Min_cycle;Max_cycle;Signal;HPM_P1;HPM_P2
2021/11/29 00:00:57;;;;;;;12.27;2.20;;;;;;;;;;4998076;28;20186;-69
2021/11/29 00:03:23;;;;;;;4.53;2.30;;;;;;;;;;5004943;28;20257;-70
2021/11/29 00:05:49;;;;;;;11.67;3.27;;;;;;;;;;5010901;28;20554;-69
2021/11/29 00:08:14;;;;;;;7.43;2.07;;;;;;;;;;4996412;28;20244;-69
2021/11/29 00:10:40;;;;;;;5.37;1.93;;;;;;;;;;5015470;28;20805;-70
2021/11/29 00:13:05;;;;;;;3.80;1.67;;;;;;;;;;4996727;28;20191;-70
2021/11/29 00:15:31;;;;;;;4.93;1.97;;;;;;;;;;5009118;28;20210;-69
2021/11/29 00:17:57;;;;;;;10.40;1.73;;;;;;;;;;4998241;28;20193;-70
2021/11/29 00:20:22;;;;;;;6.93;1.80;;;;;;;;;;5004846;28;20242;-70
2021/11/29 00:22:48;;;;;;;6.43;1.53;;;;;;;;;;4998712;28;20317;-69
2021/11/29 00:25:14;;;;;;;9.97;1.60;;;;;;;;;;5004484;28;20723;-70
2021/11/29 00:27:41;;;;;;;6.53;1.80;;;;;;;;;;4999762;28;20187;-70
2021/11/29 00:30:09;;;;;;;2.77;1.50;;;;;;;;;;5008896;28;20198;-70
2021/11/29 00:32:35;;;;;;;10.10;1.97;;;;;;;;;;4995800;28;20305;-70
2021/11/29 00:35:00;;;;;;;4.33;1.50;;;;;;;;;;5010493;28;20183;-70
2021/11/29 00:37:25;;;;;;;9.40;1.60;;;;;;;;;;5008796;28;20182;-70
2021/11/29 00:39:52;;;;;;;3.97;1.30;;;;;;;;;;4994598;28;20286;-70
2021/11/29 00:42:17;;;;;;;5.67;1.50;;;;;;;;;;5005578;28;20357;-69
2021/11/29 00:44:43;;;;;;;4.53;1.20;;;;;;;;;;4999658;28;20688;-70
2021/11/29 00:47:09;;;;;;;5.93;1.17;;;;;;;;;;5004178;28;20184;-70
2021/11/29 00:49:34;;;;;;;5.27;1.90;;;;;;;;;;4995802;28;20197;-70
2021/11/29 00:51:59;;;;;;;2.90;1.23;;;;;;;;;;5006190;28;20187;-70
2021/11/29 00:54:25;;;;;;;5.90;1.50;;;;;;;;;;4997244;28;20627;-70
2021/11/29 00:56:50;;;;;;;10.13;1.40;;;;;;;;;;5006644;28;20225;-70
2021/11/29 00:59:15;;;;;;;1.97;1.10;;;;;;;;;;4993967;28;20613;-70
2021/11/29 01:01:41;;;;;;;5.07;1.40;;;;;;;;;;5011548;28;20573;-69
2021/11/29 01:04:06;;;;;;;9.47;1.30;;;;;;;;;;4997119;28;20195;-70
2021/11/29 01:06:32;;;;;;;7.10;1.10;;;;;;;;;;5008382;28;20197;-70
2021/11/29 01:08:57;;;;;;;7.97;1.40;;;;;;;;;;5004144;28;20210;-70
2021/11/29 01:11:22;;;;;;;4.70;1.00;;;;;;;;;;5003855;28;20319;-70
2021/11/29 01:13:48;;;;;;;5.20;1.20;;;;;;;;;;5005541;28;20654;-70
2021/11/29 01:16:13;;;;;;;8.47;1.63;;;;;;;;;;4999654;28;20191;-69
2021/11/29 01:18:39;;;;;;;3.90;1.03;;;;;;;;;;5007548;28;20588;-69
2021/11/29 01:21:04;;;;;;;5.17;1.00;;;;;;;;;;5006324;28;20198;-69
2021/11/29 01:23:30;;;;;;;3.03;1.00;;;;;;;;;;5004837;28;20322;-70
2021/11/29 01:25:56;;;;;;;6.67;1.20;;;;;;;;;;4987414;28;20187;-69
2021/11/29 01:28:22;;;;;;;8.40;0.90;;;;;;;;;;5005682;28;20635;-69
2021/11/29 01:30:48;;;;;;;6.33;1.13;;;;;;;;;;5000320;28;20186;-70
2021/11/29 01:33:14;;;;;;;2.43;0.90;;;;;;;;;;5008039;28;20183;-69
2021/11/29 01:35:39;;;;;;;2.07;1.03;;;;;;;;;;5004153;28;20631;-69
2021/11/29 01:38:05;;;;;;;4.50;1.10;;;;;;;;;;5010082;28;20249;-69
2021/11/29 01:40:30;;;;;;;5.57;1.00;;;;;;;;;;5003138;28;20233;-69
2021/11/29 01:43:12;;;;;;;8.23;0.90;;;;;;;;;;4995551;28;20297;-69
2021/11/29 01:45:40;;;;;;;4.97;1.30;;;;;;;;;;5006274;28;20213;-69
2021/11/29 01:48:07;;;;;;;4.80;1.30;;;;;;;;;;5000634;28;20194;-70
2021/11/29 01:50:33;;;;;;;4.63;1.00;;;;;;;;;;5002099;28;20706;-71
2021/11/29 01:52:59;;;;;;;4.77;1.27;;;;;;;;;;5002572;28;20232;-70
2021/11/29 01:55:24;;;;;;;2.30;0.97;;;;;;;;;;5005180;28;20214;-69
2021/11/29 01:57:50;;;;;;;3.83;1.00;;;;;;;;;;4999951;28;20641;-69
2021/11/29 02:00:21;;;;;;;7.03;1.00;;;;;;;;;;5001552;28;20544;-70
2021/11/29 02:02:49;;;;;;;5.40;1.10;;;;;;;;;;4994844;28;20195;-69
2021/11/29 02:05:15;;;;;;;6.23;1.13;;;;;;;;;;5004487;28;20530;-70
2021/11/29 02:07:41;;;;;;;2.93;1.13;;;;;;;;;;5015286;28;20190;-70
2021/11/29 02:10:08;;;;;;;2.07;0.70;;;;;;;;;;5007553;28;20711;-70
2021/11/29 02:12:33;;;;;;;5.57;1.20;;;;;;;;;;4996419;28;20572;-70
2021/11/29 02:14:59;;;;;;;5.87;1.10;;;;;;;;;;5003743;28;20191;-70
2021/11/29 02:17:24;;;;;;;7.43;1.30;;;;;;;;;;5007620;28;20198;-70
2021/11/29 02:19:51;;;;;;;6.70;1.20;;;;;;;;;;4994895;28;20658;-70
2021/11/29 02:22:17;;;;;;;3.73;1.10;;;;;;;;;;5005736;28;20620;-70
2021/11/29 02:24:43;;;;;;;4.67;0.93;;;;;;;;;;4997183;28;20206;-70
2021/11/29 02:27:09;;;;;;;2.63;1.03;;;;;;;;;;4998954;28;20190;-70
2021/11/29 02:29:36;;;;;;;6.43;0.93;;;;;;;;;;4998267;28;20225;-70
2021/11/29 02:32:01;;;;;;;7.00;1.03;;;;;;;;;;5003501;28;20274;-70
2021/11/29 02:34:29;;;;;;;3.20;0.80;;;;;;;;;;4994441;28;20631;-70
2021/11/29 02:36:58;;;;;;;4.30;0.90;;;;;;;;;;5002775;28;20201;-69
2021/11/29 02:39:23;;;;;;;4.67;1.17;;;;;;;;;;4995812;28;20199;-69
2021/11/29 02:41:50;;;;;;;3.30;1.10;;;;;;;;;;5004234;28;20194;-69
2021/11/29 02:44:17;;;;;;;6.93;0.90;;;;;;;;;;4996293;28;20206;-69
2021/11/29 02:46:43;;;;;;;8.77;1.30;;;;;;;;;;5002510;28;20201;-69
2021/11/29 02:49:10;;;;;;;4.30;1.17;;;;;;;;;;5000555;28;20583;-69
2021/11/29 02:51:40;;;;;;;5.37;1.30;;;;;;;;;;5001342;28;20187;-69
2021/11/29 02:54:12;;;;;;;6.00;1.40;;;;;;;;;;5001543;28;20183;-69
2021/11/29 02:56:40;;;;;;;4.03;1.20;;;;;;;;;;4993819;28;20225;-70
2021/11/29 02:59:09;;;;;;;2.30;0.90;;;;;;;;;;5001549;28;20199;-70
2021/11/29 03:01:36;;;;;;;5.00;1.00;;;;;;;;;;4997186;28;20210;-70
2021/11/29 03:04:01;;;;;;;5.40;1.27;;;;;;;;;;5005125;28;20215;-70
2021/11/29 03:06:27;;;;;;;4.30;0.90;;;;;;;;;;4997611;28;20693;-70
2021/11/29 03:08:52;;;;;;;6.43;0.93;;;;;;;;;;5010042;28;20181;-70
2021/11/29 03:11:18;;;;;;;6.43;2.40;;;;;;;;;;4998953;28;20214;-70
2021/11/29 03:13:44;;;;;;;3.93;0.80;;;;;;;;;;5014945;28;20179;-70
2021/11/29 03:16:10;;;;;;;3.27;1.00;;;;;;;;;;4999693;28;20248;-70
2021/11/29 03:18:38;;;;;;;10.83;1.20;;;;;;;;;;5017994;28;20272;-70
2021/11/29 03:21:05;;;;;;;3.80;1.03;;;;;;;;;;5001116;28;20662;-69
2021/11/29 03:23:31;;;;;;;5.13;1.20;;;;;;;;;;5019179;28;20229;-70
2021/11/29 03:25:58;;;;;;;1.80;0.73;;;;;;;;;;5007481;28;20183;-70
2021/11/29 03:28:24;;;;;;;7.27;1.17;;;;;;;;;;5002786;28;20309;-70
2021/11/29 03:30:49;;;;;;;4.87;0.80;;;;;;;;;;5008544;28;20187;-70
2021/11/29 03:33:15;;;;;;;5.57;0.90;;;;;;;;;;4998754;28;20194;-70
2021/11/29 03:35:41;;;;;;;3.53;0.87;;;;;;;;;;5007091;28;20201;-70
2021/11/29 03:38:07;;;;;;;3.87;0.77;;;;;;;;;;5008694;28;20194;-70
2021/11/29 03:40:32;;;;;;;2.93;0.90;;;;;;;;;;5004845;28;20270;-70
2021/11/29 03:42:58;;;;;;;6.80;0.90;;;;;;;;;;5003112;28;20317;-70
2021/11/29 03:45:23;;;;;;;4.30;0.63;;;;;;;;;;5009833;28;20194;-70
2021/11/29 03:47:49;;;;;;;5.53;1.00;;;;;;;;;;4997456;28;20278;-70
2021/11/29 03:50:15;;;;;;;2.70;0.80;;;;;;;;;;5006823;28;20625;-70
2021/11/29 03:52:40;;;;;;;12.57;1.50;;;;;;;;;;4998694;28;20205;-70
2021/11/29 03:55:06;;;;;;;4.83;0.80;;;;;;;;;;5008592;28;20218;-70
2021/11/29 03:57:31;;;;;;;6.97;1.47;;;;;;;;;;5008895;28;20198;-70
2021/11/29 03:59:57;;;;;;;4.23;0.83;;;;;;;;;;5000195;28;20190;-70
2021/11/29 04:02:22;;;;;;;5.30;0.93;;;;;;;;;;5006228;28;20202;-70
2021/11/29 04:04:48;;;;;;;4.17;1.00;;;;;;;;;;4999127;28;20221;-70
2021/11/29 04:07:13;;;;;;;6.20;0.70;;;;;;;;;;5008387;28;20290;-70
2021/11/29 04:09:38;;;;;;;5.10;0.70;;;;;;;;;;5002028;28;20229;-70
2021/11/29 04:12:05;;;;;;;3.47;0.80;;;;;;;;;;5007699;28;20238;-69
2021/11/29 04:14:31;;;;;;;5.27;1.07;;;;;;;;;;5001885;28;20190;-70
2021/11/29 04:16:57;;;;;;;3.73;0.87;;;;;;;;;;5004425;28;20291;-69
2021/11/29 04:19:22;;;;;;;8.03;0.50;;;;;;;;;;4995114;28;20191;-70
2021/11/29 04:21:48;;;;;;;5.53;0.77;;;;;;;;;;5007006;28;20189;-70
2021/11/29 04:24:16;;;;;;;2.13;0.30;;;;;;;;;;5003647;28;20276;-70
2021/11/29 04:26:42;;;;;;;2.10;0.50;;;;;;;;;;5005038;28;20330;-70
2021/11/29 04:29:17;;;;;;;1.50;0.43;;;;;;;;;;5010361;28;20185;-69
2021/11/29 04:31:43;;;;;;;4.37;0.63;;;;;;;;;;5006736;28;20273;-70
2021/11/29 04:34:09;;;;;;;5.93;0.97;;;;;;;;;;5005648;28;20329;-71
2021/11/29 04:36:34;;;;;;;2.90;0.60;;;;;;;;;;4995837;28;20202;-71
2021/11/29 04:39:00;;;;;;;2.97;0.73;;;;;;;;;;5009146;28;20190;-71
2021/11/29 04:41:26;;;;;;;4.13;0.60;;;;;;;;;;4998343;28;20205;-70
2021/11/29 04:43:51;;;;;;;3.50;0.90;;;;;;;;;;5010159;28;20207;-71
2021/11/29 04:46:17;;;;;;;7.33;0.77;;;;;;;;;;4999384;28;20508;-71
2021/11/29 04:48:42;;;;;;;5.87;0.60;;;;;;;;;;5009357;28;20195;-71
2021/11/29 04:51:08;;;;;;;4.10;0.50;;;;;;;;;;4998771;28;20598;-72
2021/11/29 04:53:35;;;;;;;5.50;0.80;;;;;;;;;;5009809;28;20190;-73
2021/11/29 04:56:00;;;;;;;6.33;0.70;;;;;;;;;;4993871;28;20269;-71
2021/11/29 04:58:25;;;;;;;3.93;0.77;;;;;;;;;;5008808;28;20207;-72
2021/11/29 05:00:52;;;;;;;5.37;0.77;;;;;;;;;;4998167;28;20289;-72
2021/11/29 05:03:19;;;;;;;3.03;0.90;;;;;;;;;;5001541;28;20214;-72
2021/11/29 05:05:44;;;;;;;6.43;1.10;;;;;;;;;;5003413;28;20187;-72
2021/11/29 05:08:09;;;;;;;8.23;0.73;;;;;;;;;;5002170;28;20253;-72
2021/11/29 05:10:35;;;;;;;8.87;1.50;;;;;;;;;;5014766;28;20701;-71
2021/11/29 05:13:00;;;;;;;4.93;0.60;;;;;;;;;;4997329;28;20220;-72
2021/11/29 05:15:26;;;;;;;2.70;0.83;;;;;;;;;;5005619;28;20215;-72
2021/11/29 05:17:51;;;;;;;7.60;0.90;;;;;;;;;;4996903;28;20198;-71
2021/11/29 05:20:16;;;;;;;7.07;1.20;;;;;;;;;;5002911;28;20332;-71
2021/11/29 05:22:42;;;;;;;5.37;1.03;;;;;;;;;;4998061;28;20201;-72
2021/11/29 05:25:07;;;;;;;4.27;0.90;;;;;;;;;;5007667;28;20261;-72
2021/11/29 05:27:33;;;;;;;5.70;1.10;;;;;;;;;;4997192;28;20199;-72
2021/11/29 05:29:58;;;;;;;6.77;0.80;;;;;;;;;;5010780;28;20194;-72
2021/11/29 05:32:24;;;;;;;4.40;0.77;;;;;;;;;;4996773;28;20198;-72
2021/11/29 05:34:49;;;;;;;5.70;1.00;;;;;;;;;;5001970;28;20605;-71
2021/11/29 05:37:15;;;;;;;5.27;0.90;;;;;;;;;;5004053;28;20253;-71
2021/11/29 05:39:40;;;;;;;6.97;0.90;;;;;;;;;;4995243;28;20218;-71
2021/11/29 05:42:06;;;;;;;4.67;0.70;;;;;;;;;;5005279;28;20190;-71
2021/11/29 05:44:31;;;;;;;9.43;0.90;;;;;;;;;;4993271;28;20240;-71
2021/11/29 05:46:56;;;;;;;5.47;0.80;;;;;;;;;;5002378;28;20267;-71
2021/11/29 05:49:22;;;;;;;10.40;1.10;;;;;;;;;;4998997;28;20217;-71
2021/11/29 05:51:47;;;;;;;5.70;0.80;;;;;;;;;;5006695;28;20190;-71
2021/11/29 05:54:13;;;;;;;8.33;1.00;;;;;;;;;;4994824;28;20209;-71
2021/11/29 05:56:38;;;;;;;8.03;0.70;;;;;;;;;;5002832;28;20198;-71
2021/11/29 05:59:03;;;;;;;5.37;0.83;;;;;;;;;;4997603;28;20667;-71
2021/11/29 06:01:29;;;;;;;2.80;1.10;;;;;;;;;;5004710;28;20190;-72
2021/11/29 06:03:55;;;;;;;6.93;1.00;;;;;;;;;;5003180;28;20214;-71
2021/11/29 06:06:20;;;;;;;7.40;0.77;;;;;;;;;;4994537;28;20194;-71
2021/11/29 06:08:46;;;;;;;7.17;0.90;;;;;;;;;;5006374;28;20191;-72
2021/11/29 06:11:11;;;;;;;8.57;1.10;;;;;;;;;;4999379;28;20226;-71
2021/11/29 06:13:37;;;;;;;5.97;0.80;;;;;;;;;;5007714;28;20179;-71
2021/11/29 06:16:02;;;;;;;5.43;1.27;;;;;;;;;;4995685;28;20575;-72
2021/11/29 06:18:28;;;;;;;6.30;0.80;;;;;;;;;;4999277;28;20195;-72
2021/11/29 06:20:53;;;;;;;7.27;1.13;;;;;;;;;;4997272;28;20190;-73
2021/11/29 06:23:19;;;;;;;7.73;1.00;;;;;;;;;;5004632;28;20322;-72
2021/11/29 06:25:44;;;;;;;6.17;1.03;;;;;;;;;;4997817;28;20195;-72
2021/11/29 06:28:09;;;;;;;7.50;1.00;;;;;;;;;;5007706;28;20646;-72
2021/11/29 06:30:35;;;;;;;4.90;1.03;;;;;;;;;;4993049;28;20695;-72
2021/11/29 06:33:01;;;;;;;5.90;1.10;;;;;;;;;;5003786;28;20746;-72
2021/11/29 06:35:27;;;;;;;7.07;1.07;;;;;;;;;;5004636;28;20197;-72
2021/11/29 06:37:59;;;;;;;3.10;0.97;;;;;;;;;;4993477;28;20289;-72
2021/11/29 06:40:24;;;;;;;5.37;0.90;;;;;;;;;;5004475;28;20198;-71
2021/11/29 06:42:50;;;;;;;7.10;1.47;;;;;;;;;;4997267;28;20186;-71
2021/11/29 06:45:15;;;;;;;5.23;1.30;;;;;;;;;;5006586;28;20185;-71
2021/11/29 06:47:42;;;;;;;3.77;1.00;;;;;;;;;;4993202;28;20690;-71
2021/11/29 06:50:09;;;;;;;7.17;1.20;;;;;;;;;;5008736;28;20212;-71
2021/11/29 06:52:34;;;;;;;6.87;1.10;;;;;;;;;;4993875;28;20377;-71
2021/11/29 06:55:00;;;;;;;4.97;1.20;;;;;;;;;;4996989;28;20333;-71
2021/11/29 06:57:25;;;;;;;3.73;0.90;;;;;;;;;;4993362;28;20195;-71
2021/11/29 06:59:51;;;;;;;8.27;0.90;;;;;;;;;;4998133;28;20741;-72
2021/11/29 07:02:18;;;;;;;9.07;1.30;;;;;;;;;;4992107;28;20261;-72
2021/11/29 07:04:43;;;;;;;3.53;0.83;;;;;;;;;;4997746;28;20211;-72
2021/11/29 07:07:09;;;;;;;7.50;1.00;;;;;;;;;;4996293;28;20198;-72
2021/11/29 07:09:34;;;;;;;8.57;1.20;;;;;;;;;;4992947;28;20198;-72
2021/11/29 07:11:59;;;;;;;6.40;1.23;;;;;;;;;;4997557;28;20274;-73
2021/11/29 07:14:26;;;;;;;6.33;1.07;;;;;;;;;;4996482;28;20179;-72
2021/11/29 07:16:51;;;;;;;6.30;1.53;;;;;;;;;;5003433;28;20199;-72
2021/11/29 07:19:17;;;;;;;3.17;0.83;;;;;;;;;;4994829;28;20705;-72
2021/11/29 07:21:44;;;;;;;12.33;1.53;;;;;;;;;;5000770;28;20194;-72
2021/11/29 07:24:10;;;;;;;7.23;1.30;;;;;;;;;;4992031;28;20284;-72
2021/11/29 07:26:40;;;;;;;5.43;1.30;;;;;;;;;;5000155;28;20194;-72
2021/11/29 07:29:06;;;;;;;4.80;1.23;;;;;;;;;;4995219;28;20206;-71
2021/11/29 07:31:32;;;;;;;7.40;1.30;;;;;;;;;;5000501;28;20486;-71
2021/11/29 07:33:58;;;;;;;5.37;0.97;;;;;;;;;;4996038;28;20199;-71
2021/11/29 07:36:23;;;;;;;7.17;1.33;;;;;;;;;;5005202;28;20712;-71
2021/11/29 07:38:48;;;;;;;6.07;1.30;;;;;;;;;;4999652;28;20182;-71
2021/11/29 07:41:14;;;;;;;5.83;1.67;;;;;;;;;;5002581;28;20186;-71
2021/11/29 07:43:39;;;;;;;4.17;1.30;;;;;;;;;;5003188;28;20246;-70
2021/11/29 07:46:05;;;;;;;7.73;1.43;;;;;;;;;;4997893;28;20290;-71
2021/11/29 07:48:30;;;;;;;4.97;1.17;;;;;;;;;;5002852;28;20182;-71
2021/11/29 07:50:56;;;;;;;9.00;1.87;;;;;;;;;;4990209;28;20190;-71
2021/11/29 07:53:22;;;;;;;7.70;1.83;;;;;;;;;;5004614;28;20195;-71
2021/11/29 07:55:48;;;;;;;6.47;1.37;;;;;;;;;;5000680;28;20225;-71
2021/11/29 07:58:16;;;;;;;7.40;1.60;;;;;;;;;;5008811;28;20488;-71
2021/11/29 08:00:42;;;;;;;4.90;1.40;;;;;;;;;;4996860;28;20240;-71
2021/11/29 08:03:07;;;;;;;6.93;1.70;;;;;;;;;;5003310;28;20294;-70
2021/11/29 08:05:34;;;;;;;8.10;1.83;;;;;;;;;;5007798;28;20651;-71
2021/11/29 08:08:01;;;;;;;12.90;1.90;;;;;;;;;;5007009;28;20187;-71
2021/11/29 08:10:26;;;;;;;4.83;1.97;;;;;;;;;;5014030;28;20223;-71
2021/11/29 08:12:52;;;;;;;11.03;2.20;;;;;;;;;;5005497;28;20187;-71
2021/11/29 08:15:19;;;;;;;4.53;1.70;;;;;;;;;;5012968;28;20187;-72
2021/11/29 08:17:44;;;;;;;9.73;1.93;;;;;;;;;;5005621;28;20190;-71
2021/11/29 08:20:11;;;;;;;8.60;2.13;;;;;;;;;;5009088;28;20554;-71
2021/11/29 08:22:36;;;;;;;10.27;2.50;;;;;;;;;;5002346;28;20191;-72
2021/11/29 08:25:03;;;;;;;6.33;2.07;;;;;;;;;;5010258;28;20213;-72
2021/11/29 08:27:28;;;;;;;14.07;2.77;;;;;;;;;;5001027;28;20190;-71
2021/11/29 08:29:54;;;;;;;6.83;2.40;;;;;;;;;;5009514;28;20701;-72
2021/11/29 08:32:20;;;;;;;7.80;2.00;;;;;;;;;;4997790;28;20229;-71
2021/11/29 08:34:45;;;;;;;5.77;2.23;;;;;;;;;;5009004;28;20179;-72
2021/11/29 08:37:12;;;;;;;4.90;2.20;;;;;;;;;;5002354;28;20193;-72
2021/11/29 08:39:38;;;;;;;6.67;2.33;;;;;;;;;;5004878;28;20281;-72
2021/11/29 08:42:04;;;;;;;8.17;2.67;;;;;;;;;;5001389;28;20270;-72
2021/11/29 08:44:30;;;;;;;10.50;2.30;;;;;;;;;;5008790;28;20287;-71
2021/11/29 08:46:56;;;;;;;5.47;2.57;;;;;;;;;;5013040;28;20213;-71
2021/11/29 08:49:23;;;;;;;8.63;2.73;;;;;;;;;;4999237;28;20673;-71
2021/11/29 08:51:49;;;;;;;6.17;2.80;;;;;;;;;;5013830;28;20213;-71
2021/11/29 08:54:15;;;;;;;6.37;3.50;;;;;;;;;;4996532;28;20199;-72
2021/11/29 08:56:41;;;;;;;9.90;3.57;;;;;;;;;;5012459;28;20233;-71
2021/11/29 08:59:07;;;;;;;7.57;3.13;;;;;;;;;;4993927;28;20524;-71
2021/11/29 09:01:34;;;;;;;8.47;3.00;;;;;;;;;;5012218;28;20240;-71
2021/11/29 09:04:00;;;;;;;8.40;3.53;;;;;;;;;;4999862;28;20206;-71
2021/11/29 09:06:25;;;;;;;8.20;3.53;;;;;;;;;;5010539;28;20210;-71
2021/11/29 09:08:51;;;;;;;7.30;3.63;;;;;;;;;;4996970;28;20694;-71
2021/11/29 09:11:16;;;;;;;9.60;4.20;;;;;;;;;;5008530;28;20302;-71
2021/11/29 09:13:44;;;;;;;10.23;4.57;;;;;;;;;;5001091;28;20826;-71
2021/11/29 09:16:14;;;;;;;11.53;4.83;;;;;;;;;;5016241;28;20211;-71
2021/11/29 09:18:41;;;;;;;8.90;4.60;;;;;;;;;;5005260;28;20627;-71
2021/11/29 09:21:07;;;;;;;9.63;4.53;;;;;;;;;;5007711;28;20281;-71
2021/11/29 09:23:33;;;;;;;10.53;4.47;;;;;;;;;;5013070;28;20288;-71
2021/11/29 09:26:00;;;;;;;8.20;4.93;;;;;;;;;;5010992;28;20226;-72
2021/11/29 09:28:25;;;;;;;8.37;4.77;;;;;;;;;;5015490;28;20604;-71
2021/11/29 09:30:52;;;;;;;8.53;4.40;;;;;;;;;;5008849;28;20194;-71
2021/11/29 09:33:17;;;;;;;8.67;4.40;;;;;;;;;;5015733;28;20557;-71
2021/11/29 09:35:43;;;;;;;8.40;3.90;;;;;;;;;;5005425;28;20380;-71
2021/11/29 09:38:08;;;;;;;7.70;3.60;;;;;;;;;;5014342;28;20558;-71
2021/11/29 09:40:36;;;;;;;7.73;3.93;;;;;;;;;;5003938;28;20203;-71
2021/11/29 09:43:09;;;;;;;11.20;3.80;;;;;;;;;;5015239;28;20174;-71
2021/11/29 09:45:35;;;;;;;9.37;4.63;;;;;;;;;;4999180;28;20194;-71
2021/11/29 09:48:01;;;;;;;7.87;4.10;;;;;;;;;;5005620;28;20221;-71
2021/11/29 09:50:29;;;;;;;8.83;3.60;;;;;;;;;;4999632;28;20281;-71
2021/11/29 09:52:55;;;;;;;7.50;4.70;;;;;;;;;;5009548;28;20183;-71
2021/11/29 09:55:26;;;;;;;7.23;3.77;;;;;;;;;;5008920;28;20360;-71
2021/11/29 09:57:53;;;;;;;8.47;4.60;;;;;;;;;;5013255;28;20194;-70
2021/11/29 10:00:28;;;;;;;7.90;3.80;;;;;;;;;;5009447;28;20239;-70
2021/11/29 10:02:53;;;;;;;6.03;3.83;;;;;;;;;;5000123;28;20198;-70
2021/11/29 10:05:20;;;;;;;7.43;3.73;;;;;;;;;;5011080;28;20657;-71
2021/11/29 10:07:51;;;;;;;10.07;4.07;;;;;;;;;;5008334;28;20674;-71
2021/11/29 10:10:25;;;;;;;8.03;4.13;;;;;;;;;;5012051;28;20293;-71
2021/11/29 10:12:53;;;;;;;8.90;4.17;;;;;;;;;;5003699;28;20194;-71
2021/11/29 10:15:24;;;;;;;9.83;4.33;;;;;;;;;;5010606;28;20189;-71
2021/11/29 10:17:58;;;;;;;10.10;4.30;;;;;;;;;;5005519;28;20195;-70
2021/11/29 10:20:24;;;;;;;7.20;4.00;;;;;;;;;;5013832;28;20311;-71
2021/11/29 10:22:59;;;;;;;6.00;4.20;;;;;;;;;;5006295;28;20281;-70
2021/11/29 10:25:25;;;;;;;6.30;3.60;;;;;;;;;;5007613;28;20520;-70
2021/11/29 10:27:50;;;;;;;5.33;3.53;;;;;;;;;;5000330;28;20579;-70
2021/11/29 10:30:19;;;;;;;5.27;3.40;;;;;;;;;;5009241;28;20299;-71
2021/11/29 10:32:47;;;;;;;8.33;4.07;;;;;;;;;;4997186;28;20194;-71
2021/11/29 10:35:20;;;;;;;6.33;3.60;;;;;;;;;;5018268;28;20225;-71
2021/11/29 10:37:47;;;;;;;6.80;3.80;;;;;;;;;;4997107;28;20822;-71
2021/11/29 10:40:15;;;;;;;5.13;3.27;;;;;;;;;;5015550;28;20178;-71
2021/11/29 10:42:41;;;;;;;4.37;3.40;;;;;;;;;;5007912;28;20257;-71
2021/11/29 10:45:20;;;;;;;9.00;3.40;;;;;;;;;;5007389;28;20202;-71
2021/11/29 10:47:53;;;;;;;5.73;3.60;;;;;;;;;;5009810;28;20194;-71
2021/11/29 10:50:26;;;;;;;5.13;3.13;;;;;;;;;;4997593;28;20658;-70
2021/11/29 10:53:07;;;;;;;7.73;3.83;;;;;;;;;;5010998;28;20181;-71
2021/11/29 10:55:59;;;;;;;6.73;3.53;;;;;;;;;;5000863;28;20202;-71
2021/11/29 10:58:27;;;;;;;6.53;3.60;;;;;;;;;;5009296;28;20206;-71
2021/11/29 11:00:55;;;;;;;7.27;3.70;;;;;;;;;;5001999;28;20634;-71
2021/11/29 11:03:20;;;;;;;10.33;4.23;;;;;;;;;;5017235;28;21668;-72
2021/11/29 11:06:04;;;;;;;12.47;3.70;;;;;;;;;;5000977;28;20246;-71
2021/11/29 11:08:34;;;;;;;5.83;3.57;;;;;;;;;;5010234;28;20166;-71
2021/11/29 11:11:01;;;;;;;5.37;3.83;;;;;;;;;;4998930;28;20237;-72
2021/11/29 11:13:28;;;;;;;7.17;3.70;;;;;;;;;;5013526;28;20665;-72
2021/11/29 11:15:53;;;;;;;7.37;3.70;;;;;;;;;;4998718;28;20191;-71
2021/11/29 11:18:19;;;;;;;4.90;3.50;;;;;;;;;;5019143;28;20218;-72
2021/11/29 11:20:48;;;;;;;7.47;3.63;;;;;;;;;;4997065;28;20549;-71
2021/11/29 11:23:25;;;;;;;6.50;3.77;;;;;;;;;;5010714;28;20549;-71
2021/11/29 11:25:50;;;;;;;5.37;3.57;;;;;;;;;;5001874;28;20602;-71
2021/11/29 11:28:15;;;;;;;9.43;3.10;;;;;;;;;;5012183;28;20244;-71
2021/11/29 11:30:43;;;;;;;7.23;3.57;;;;;;;;;;5003537;28;20450;-71
2021/11/29 11:33:16;;;;;;;7.53;3.40;;;;;;;;;;5010648;28;20248;-71
2021/11/29 11:35:45;;;;;;;5.20;3.50;;;;;;;;;;5015222;28;20579;-71
2021/11/29 11:38:14;;;;;;;8.03;3.60;;;;;;;;;;5008313;28;20195;-71
2021/11/29 11:40:46;;;;;;;5.23;3.70;;;;;;;;;;5017874;28;20177;-72
2021/11/29 11:43:13;;;;;;;9.60;3.80;;;;;;;;;;5012556;28;20559;-72
2021/11/29 11:45:41;;;;;;;7.90;4.07;;;;;;;;;;5022168;28;20170;-72
2021/11/29 11:48:07;;;;;;;5.27;3.50;;;;;;;;;;4999871;28;20196;-72
2021/11/29 11:50:43;;;;;;;8.13;3.77;;;;;;;;;;5011576;28;20236;-72
2021/11/29 11:53:09;;;;;;;6.37;3.80;;;;;;;;;;4997634;28;20612;-72
2021/11/29 11:55:37;;;;;;;8.00;4.00;;;;;;;;;;5001460;28;20256;-71
2021/11/29 11:58:10;;;;;;;5.83;3.30;;;;;;;;;;5000536;28;20225;-71
2021/11/29 12:00:42;;;;;;;5.37;3.30;;;;;;;;;;5019103;28;20242;-71
2021/11/29 12:03:13;;;;;;;5.57;3.07;;;;;;;;;;5000560;28;20194;-71
2021/11/29 12:05:54;;;;;;;6.50;2.67;;;;;;;;;;5008064;28;20186;-71
2021/11/29 12:08:46;;;;;;;4.67;2.63;;;;;;;;;;4997512;28;20480;-72
2021/11/29 12:11:26;;;;;;;5.33;3.00;;;;;;;;;;5004647;28;20322;-72
2021/11/29 12:14:11;;;;;;;5.53;2.80;;;;;;;;;;4999437;28;20183;-71
2021/11/29 12:16:40;;;;;;;5.53;3.03;;;;;;;;;;5003568;28;20230;-71
2021/11/29 12:19:12;;;;;;;5.97;3.07;;;;;;;;;;4992703;28;20221;-71
2021/11/29 12:21:39;;;;;;;4.70;3.00;;;;;;;;;;5004558;28;20187;-72
2021/11/29 12:24:11;;;;;;;4.00;3.00;;;;;;;;;;4998489;28;20211;-72
2021/11/29 12:26:43;;;;;;;4.87;3.10;;;;;;;;;;5002259;28;20514;-71
2021/11/29 12:29:20;;;;;;;5.10;2.77;;;;;;;;;;4992537;28;20190;-71
2021/11/29 12:31:48;;;;;;;4.57;2.93;;;;;;;;;;5007656;28;20226;-71
2021/11/29 12:34:13;;;;;;;4.80;3.33;;;;;;;;;;4995582;28;20195;-72
2021/11/29 12:37:02;;;;;;;6.20;2.90;;;;;;;;;;5007680;28;20545;-71
2021/11/29 12:39:48;;;;;;;4.23;2.80;;;;;;;;;;4994057;28;20301;-71
2021/11/29 12:42:20;;;;;;;4.30;2.70;;;;;;;;;;4318460;28;10000743;-72
2021/11/29 12:44:53;;;;;;;4.37;3.20;;;;;;;;;;4993269;28;20218;-72
2021/11/29 12:47:41;;;;;;;5.90;3.13;;;;;;;;;;4998693;28;20182;-72
2021/11/29 12:50:36;;;;;;;7.17;3.70;;;;;;;;;;4990811;28;20202;-70
2021/11/29 12:53:10;;;;;;;5.43;3.50;;;;;;;;;;4993358;28;20213;-71
2021/11/29 12:55:36;;;;;;;7.13;3.43;;;;;;;;;;4993409;28;20314;-71
2021/11/29 12:58:20;;;;;;;6.57;3.47;;;;;;;;;;5004577;28;20201;-71
2021/11/29 13:01:08;;;;;;;4.90;3.47;;;;;;;;;;4989589;28;20584;-71
2021/11/29 13:03:42;;;;;;;6.10;3.37;;;;;;;;;;4990228;28;20223;-72
2021/11/29 13:06:08;;;;;;;5.40;3.73;;;;;;;;;;4987598;28;20199;-72
2021/11/29 13:08:37;;;;;;;8.30;3.77;;;;;;;;;;5000628;28;20232;-71
2021/11/29 13:11:09;;;;;;;8.60;3.63;;;;;;;;;;5009828;28;20263;-71
2021/11/29 13:13:38;;;;;;;6.83;3.43;;;;;;;;;;5010106;28;20183;-71
2021/11/29 13:16:09;;;;;;;6.80;3.40;;;;;;;;;;5011141;28;20252;-70
2021/11/29 13:18:44;;;;;;;5.90;3.50;;;;;;;;;;5009125;28;20178;-71
2021/11/29 13:21:17;;;;;;;7.37;3.73;;;;;;;;;;5004318;28;20597;-71
2021/11/29 13:23:52;;;;;;;6.47;3.53;;;;;;;;;;5010772;28;20211;-71
2021/11/29 13:26:19;;;;;;;6.33;3.17;;;;;;;;;;4999066;28;20187;-71
2021/11/29 13:28:46;;;;;;;6.13;3.20;;;;;;;;;;5016001;28;20189;-71
2021/11/29 13:31:14;;;;;;;4.47;2.80;;;;;;;;;;5014496;28;20659;-71
2021/11/29 13:33:40;;;;;;;4.57;3.23;;;;;;;;;;5008527;28;20247;-71
2021/11/29 13:36:08;;;;;;;3.87;2.83;;;;;;;;;;5011677;28;20265;-71
2021/11/29 13:38:38;;;;;;;4.80;2.97;;;;;;;;;;4998142;28;20196;-71
2021/11/29 13:41:18;;;;;;;5.87;3.20;;;;;;;;;;5006341;28;20340;-71
2021/11/29 13:43:44;;;;;;;5.00;2.73;;;;;;;;;;4999527;28;20670;-71
2021/11/29 13:46:15;;;;;;;5.97;3.00;;;;;;;;;;5007973;28;20262;-71
2021/11/29 13:48:41;;;;;;;4.40;2.93;;;;;;;;;;5005052;28;20193;-71
2021/11/29 13:51:08;;;;;;;6.33;3.33;;;;;;;;;;5008886;28;20190;-71
2021/11/29 13:53:40;;;;;;;6.50;3.50;;;;;;;;;;4999287;28;20542;-71
2021/11/29 13:56:07;;;;;;;4.70;3.00;;;;;;;;;;5007598;28;20700;-70
2021/11/29 13:58:33;;;;;;;6.57;3.30;;;;;;;;;;5006116;28;20646;-71
2021/11/29 14:01:11;;;;;;;5.90;2.60;;;;;;;;;;5012024;28;20167;-71
2021/11/29 14:03:48;;;;;;;5.40;3.30;;;;;;;;;;4997889;28;22050;-71
2021/11/29 14:06:19;;;;;;;4.10;3.00;;;;;;;;;;5011967;28;20183;-71
2021/11/29 14:08:46;;;;;;;5.33;3.33;;;;;;;;;;4999532;28;20265;-71
2021/11/29 14:11:15;;;;;;;5.33;3.33;;;;;;;;;;5006512;28;20722;-71
2021/11/29 14:13:49;;;;;;;5.37;3.20;;;;;;;;;;5011146;28;20240;-71
2021/11/29 14:16:21;;;;;;;3.97;2.70;;;;;;;;;;5014970;28;20173;-71
2021/11/29 14:18:49;;;;;;;8.00;3.00;;;;;;;;;;5007832;28;20191;-71
2021/11/29 14:21:17;;;;;;;4.00;3.00;;;;;;;;;;5004226;28;20218;-71
2021/11/29 14:23:45;;;;;;;5.20;3.33;;;;;;;;;;5008233;28;20207;-71
2021/11/29 14:26:13;;;;;;;6.23;3.47;;;;;;;;;;5007532;28;20551;-71
2021/11/29 14:28:39;;;;;;;4.67;3.30;;;;;;;;;;5008536;28;20185;-71
2021/11/29 14:31:06;;;;;;;5.93;3.13;;;;;;;;;;5002547;28;20276;-71
2021/11/29 14:33:36;;;;;;;6.37;3.37;;;;;;;;;;5009786;28;20273;-71
2021/11/29 14:36:23;;;;;;;4.60;3.30;;;;;;;;;;5012342;28;20186;-71
2021/11/29 14:38:48;;;;;;;6.23;3.43;;;;;;;;;;5012805;28;20183;-71
2021/11/29 14:41:14;;;;;;;5.90;3.47;;;;;;;;;;5001518;28;20501;-71
2021/11/29 14:43:49;;;;;;;8.33;3.60;;;;;;;;;;5012305;28;20261;-71
2021/11/29 14:46:25;;;;;;;6.67;3.70;;;;;;;;;;4996181;28;20214;-71